Time;durP1;ratioP1;P1;durP2;ratioP2;P2;SDS_P1;SDS_P2;PMS_P1;PMS_P2;Temp;Humidity;BMP_temperature;BMP_pressure;BME280_temperature;BME280_humidity;BME280_pressure;Samples;Min_cycle;Max_cycle;Signal;HPM_P1;HPM_P2
2024/04/10 00:01:12;;;;;;;9.43;2.95;;;;;;;;;;5395038;26;20279;-70
2024/04/10 00:03:37;;;;;;;10.85;2.75;;;;;;;;;;5391982;26;20292;-70
2024/04/10 00:06:09;;;;;;;11.05;2.80;;;;;;;;;;5397619;26;20230;-70
2024/04/10 00:08:35;;;;;;;8.77;3.00;;;;;;;;;;5395602;26;20277;-70
2024/04/10 00:11:01;;;;;;;8.80;2.63;;;;;;;;;;5401360;26;20744;-72
2024/04/10 00:13:30;;;;;;;12.50;3.40;;;;;;;;;;5409015;26;20273;-71
2024/04/10 00:16:00;;;;;;;13.43;3.28;;;;;;;;;;5381743;26;20278;-70
2024/04/10 00:18:26;;;;;;;11.77;3.53;;;;;;;;;;5388873;26;20748;-71
2024/04/10 00:20:51;;;;;;;16.25;3.47;;;;;;;;;;5407554;26;20364;-72
2024/04/10 00:23:18;;;;;;;17.58;3.97;;;;;;;;;;5410855;26;20257;-72
2024/04/10 00:25:55;;;;;;;10.57;3.58;;;;;;;;;;5405617;26;20335;-73
2024/04/10 00:28:21;;;;;;;17.13;3.70;;;;;;;;;;5399228;26;20282;-73
2024/04/10 00:30:47;;;;;;;15.88;4.03;;;;;;;;;;5398400;26;20335;-74
2024/04/10 00:33:12;;;;;;;12.38;3.72;;;;;;;;;;5401512;26;20247;-74
2024/04/10 00:35:38;;;;;;;12.77;3.20;;;;;;;;;;5396923;26;20335;-74
2024/04/10 00:38:03;;;;;;;9.93;3.47;;;;;;;;;;5360582;26;20244;-74
2024/04/10 00:40:29;;;;;;;12.68;3.75;;;;;;;;;;5386741;26;20654;-74
2024/04/10 00:42:54;;;;;;;16.75;3.88;;;;;;;;;;5401879;26;20240;-74
2024/04/10 00:45:20;;;;;;;10.35;2.53;;;;;;;;;;5403797;26;20717;-71
2024/04/10 00:47:45;;;;;;;14.15;3.50;;;;;;;;;;5389539;26;20429;-72
2024/04/10 00:50:11;;;;;;;12.55;2.90;;;;;;;;;;5392456;26;20683;-72
2024/04/10 00:52:36;;;;;;;9.43;2.92;;;;;;;;;;5405145;26;20734;-71
2024/04/10 00:55:04;;;;;;;9.73;2.40;;;;;;;;;;5397479;26;20256;-72
2024/04/10 00:57:29;;;;;;;10.73;2.35;;;;;;;;;;5403773;26;20302;-72
2024/04/10 00:59:55;;;;;;;8.30;2.55;;;;;;;;;;5396281;26;20286;-72
2024/04/10 01:02:21;;;;;;;9.48;2.22;;;;;;;;;;5386271;26;20292;-71
2024/04/10 01:04:49;;;;;;;8.98;2.20;;;;;;;;;;5393287;26;20238;-72
2024/04/10 01:07:14;;;;;;;8.77;2.83;;;;;;;;;;5392411;26;20574;-73
2024/04/10 01:09:40;;;;;;;9.73;2.55;;;;;;;;;;5392748;26;20285;-71
2024/04/10 01:12:05;;;;;;;7.45;2.17;;;;;;;;;;5390405;26;20609;-71
2024/04/10 01:14:31;;;;;;;7.70;2.03;;;;;;;;;;5361438;26;20243;-71
2024/04/10 01:16:56;;;;;;;10.80;2.25;;;;;;;;;;5408633;26;20285;-71
2024/04/10 01:19:22;;;;;;;7.32;2.35;;;;;;;;;;5396140;26;20234;-71
2024/04/10 01:21:47;;;;;;;10.65;2.65;;;;;;;;;;5380219;26;20363;-71
2024/04/10 01:24:13;;;;;;;5.68;2.60;;;;;;;;;;5370708;26;20277;-71
2024/04/10 01:26:38;;;;;;;10.23;3.10;;;;;;;;;;5379700;26;20703;-71
2024/04/10 01:29:04;;;;;;;7.88;2.40;;;;;;;;;;5389455;26;20688;-70
2024/04/10 01:31:30;;;;;;;7.93;2.60;;;;;;;;;;5400540;26;20291;-70
2024/04/10 01:33:56;;;;;;;8.07;2.40;;;;;;;;;;5392113;26;20231;-71
2024/04/10 01:36:22;;;;;;;9.95;2.75;;;;;;;;;;5396760;26;20574;-70
2024/04/10 01:38:49;;;;;;;9.65;2.95;;;;;;;;;;5365662;26;20247;-70
2024/04/10 01:41:14;;;;;;;11.35;2.83;;;;;;;;;;5391417;26;20236;-71
2024/04/10 01:43:40;;;;;;;8.77;2.50;;;;;;;;;;5388688;26;20578;-71
2024/04/10 01:46:06;;;;;;;11.82;2.88;;;;;;;;;;5395892;26;20251;-70
2024/04/10 01:48:32;;;;;;;10.52;2.78;;;;;;;;;;5406522;26;20335;-70
2024/04/10 01:50:57;;;;;;;6.90;2.38;;;;;;;;;;5403935;26;20651;-70
2024/04/10 01:53:22;;;;;;;10.13;2.90;;;;;;;;;;5403771;26;20250;-70
2024/04/10 01:55:50;;;;;;;8.93;2.70;;;;;;;;;;5408326;26;20227;-70
2024/04/10 01:58:15;;;;;;;9.85;2.72;;;;;;;;;;5405724;26;20251;-70
2024/04/10 02:00:41;;;;;;;9.13;2.15;;;;;;;;;;5412359;26;20265;-71
2024/04/10 02:03:06;;;;;;;8.40;2.78;;;;;;;;;;5385159;26;20392;-70
2024/04/10 02:05:31;;;;;;;11.25;2.88;;;;;;;;;;5397561;26;20282;-70
2024/04/10 02:07:57;;;;;;;5.35;2.30;;;;;;;;;;5390969;26;20627;-70
2024/04/10 02:10:22;;;;;;;10.52;2.70;;;;;;;;;;5420658;26;20688;-71
2024/04/10 02:12:48;;;;;;;7.20;2.42;;;;;;;;;;5405471;26;20273;-70
2024/04/10 02:15:13;;;;;;;8.98;2.22;;;;;;;;;;5403253;26;20555;-71
2024/04/10 02:17:39;;;;;;;12.90;2.83;;;;;;;;;;5399905;26;20655;-71
2024/04/10 02:20:07;;;;;;;9.48;2.67;;;;;;;;;;5400437;26;20255;-70
2024/04/10 02:22:33;;;;;;;7.18;2.60;;;;;;;;;;5407781;26;20773;-70
2024/04/10 02:24:58;;;;;;;12.25;2.80;;;;;;;;;;5379833;26;20282;-71
2024/04/10 02:27:23;;;;;;;6.72;2.42;;;;;;;;;;5409958;26;20238;-71
2024/04/10 02:29:49;;;;;;;9.43;2.63;;;;;;;;;;5400066;26;20232;-70
2024/04/10 02:32:14;;;;;;;9.68;2.67;;;;;;;;;;5404377;26;20235;-70
2024/04/10 02:34:40;;;;;;;15.02;2.90;;;;;;;;;;5393955;26;20247;-70
2024/04/10 02:37:05;;;;;;;22.13;4.22;;;;;;;;;;5386298;26;20285;-70
2024/04/10 02:39:31;;;;;;;8.70;3.42;;;;;;;;;;5380082;26;20307;-71
2024/04/10 02:41:56;;;;;;;10.07;2.85;;;;;;;;;;5390962;26;20247;-70
2024/04/10 02:44:22;;;;;;;11.30;2.55;;;;;;;;;;5410142;26;20269;-71
2024/04/10 02:46:48;;;;;;;5.25;2.25;;;;;;;;;;5394034;26;20263;-70
2024/04/10 02:49:13;;;;;;;10.82;2.78;;;;;;;;;;5403099;26;20721;-71
2024/04/10 02:51:39;;;;;;;10.13;2.90;;;;;;;;;;5402256;26;20257;-71
2024/04/10 02:54:04;;;;;;;12.13;2.80;;;;;;;;;;5401415;26;20296;-71
2024/04/10 02:56:29;;;;;;;10.82;2.67;;;;;;;;;;5401959;26;20243;-71
2024/04/10 02:58:55;;;;;;;12.65;2.65;;;;;;;;;;5399319;26;20238;-71
2024/04/10 03:01:20;;;;;;;9.38;2.65;;;;;;;;;;5406792;26;20239;-70
2024/04/10 03:03:46;;;;;;;10.20;2.60;;;;;;;;;;5397964;26;20421;-71
2024/04/10 03:06:12;;;;;;;7.25;2.70;;;;;;;;;;5394048;26;20270;-71
2024/04/10 03:08:37;;;;;;;7.72;2.80;;;;;;;;;;5398797;26;20518;-70
2024/04/10 03:11:05;;;;;;;12.52;2.83;;;;;;;;;;5406362;26;20286;-71
2024/04/10 03:13:32;;;;;;;8.77;2.90;;;;;;;;;;5412775;26;20277;-70
2024/04/10 03:15:57;;;;;;;8.98;2.35;;;;;;;;;;5402428;26;20253;-71
2024/04/10 03:18:23;;;;;;;11.20;2.97;;;;;;;;;;5394823;26;20307;-71
2024/04/10 03:20:48;;;;;;;6.88;1.85;;;;;;;;;;5386558;26;20727;-71
2024/04/10 03:23:14;;;;;;;10.05;2.72;;;;;;;;;;5399819;26;20330;-70
2024/04/10 03:25:39;;;;;;;11.13;2.95;;;;;;;;;;5411369;26;20230;-70
2024/04/10 03:28:05;;;;;;;18.25;3.75;;;;;;;;;;5353575;26;20240;-70
2024/04/10 03:30:32;;;;;;;11.60;2.83;;;;;;;;;;5388635;26;20297;-71
2024/04/10 03:32:57;;;;;;;10.75;2.67;;;;;;;;;;5405680;26;20288;-70
2024/04/10 03:35:24;;;;;;;11.00;2.88;;;;;;;;;;5417238;26;20243;-71
2024/04/10 03:37:50;;;;;;;8.75;2.67;;;;;;;;;;5417046;26;20234;-69
2024/04/10 03:40:16;;;;;;;10.63;2.35;;;;;;;;;;5410151;26;20243;-70
2024/04/10 03:42:42;;;;;;;7.30;2.58;;;;;;;;;;5421102;26;20333;-70
2024/04/10 03:45:08;;;;;;;12.77;3.13;;;;;;;;;;5413922;26;20242;-70
2024/04/10 03:47:34;;;;;;;10.13;3.95;;;;;;;;;;5401378;26;20398;-70
2024/04/10 03:50:00;;;;;;;9.40;2.47;;;;;;;;;;5414652;26;20275;-70
2024/04/10 03:52:25;;;;;;;8.88;2.50;;;;;;;;;;5410764;26;20430;-70
2024/04/10 03:54:50;;;;;;;9.27;3.13;;;;;;;;;;5410679;26;20246;-70
2024/04/10 03:57:16;;;;;;;12.50;3.30;;;;;;;;;;5412575;26;20662;-70
2024/04/10 03:59:42;;;;;;;13.10;3.50;;;;;;;;;;5404274;26;20298;-70
2024/04/10 04:02:07;;;;;;;11.77;3.67;;;;;;;;;;5398474;26;20235;-71
2024/04/10 04:04:33;;;;;;;12.10;2.72;;;;;;;;;;5395756;26;20290;-71
2024/04/10 04:06:58;;;;;;;10.23;2.83;;;;;;;;;;5379183;26;20273;-71
2024/04/10 04:09:23;;;;;;;8.27;2.60;;;;;;;;;;5404983;26;20242;-71
2024/04/10 04:11:49;;;;;;;11.23;2.90;;;;;;;;;;5408514;26;20247;-71
2024/04/10 04:14:14;;;;;;;12.45;3.30;;;;;;;;;;5406415;26;20359;-71
2024/04/10 04:16:40;;;;;;;11.40;3.10;;;;;;;;;;5396246;26;20652;-70
2024/04/10 04:19:06;;;;;;;10.98;3.15;;;;;;;;;;5400638;26;20242;-71
2024/04/10 04:21:31;;;;;;;15.80;4.15;;;;;;;;;;5367249;26;20311;-70
2024/04/10 04:23:58;;;;;;;15.93;3.33;;;;;;;;;;5392979;26;20286;-71
2024/04/10 04:26:24;;;;;;;16.17;4.13;;;;;;;;;;5398005;26;20290;-71
2024/04/10 04:28:51;;;;;;;14.48;3.67;;;;;;;;;;5409800;26;20615;-71
2024/04/10 04:31:17;;;;;;;13.30;4.03;;;;;;;;;;5409413;26;20239;-71
2024/04/10 04:33:43;;;;;;;13.60;4.22;;;;;;;;;;5405089;26;20369;-71
2024/04/10 04:36:10;;;;;;;15.05;3.80;;;;;;;;;;5416965;26;20234;-71
2024/04/10 04:38:36;;;;;;;17.13;4.30;;;;;;;;;;5403848;26;20238;-71
2024/04/10 04:41:02;;;;;;;12.73;3.45;;;;;;;;;;5396166;26;20246;-71
2024/04/10 04:43:27;;;;;;;13.15;4.13;;;;;;;;;;5403620;26;20269;-71
2024/04/10 04:45:53;;;;;;;12.93;3.63;;;;;;;;;;5394483;26;20283;-70
2024/04/10 04:48:18;;;;;;;13.07;4.32;;;;;;;;;;5388150;26;20314;-71
2024/04/10 04:50:45;;;;;;;15.25;4.47;;;;;;;;;;5395747;26;20476;-71
2024/04/10 04:53:12;;;;;;;16.05;4.07;;;;;;;;;;5409217;26;20288;-71
2024/04/10 04:55:39;;;;;;;18.08;4.55;;;;;;;;;;5411645;26;20229;-71
2024/04/10 04:58:05;;;;;;;15.85;4.20;;;;;;;;;;5406662;26;20235;-71
2024/04/10 05:00:34;;;;;;;13.98;4.30;;;;;;;;;;5415573;26;20309;-70
2024/04/10 05:03:00;;;;;;;25.60;4.70;;;;;;;;;;5395948;26;20249;-70
2024/04/10 05:05:26;;;;;;;19.67;5.95;;;;;;;;;;5398392;26;20277;-71
2024/04/10 05:07:52;;;;;;;17.83;4.70;;;;;;;;;;5389906;26;20682;-71
2024/04/10 05:10:18;;;;;;;16.73;4.82;;;;;;;;;;5393703;26;20286;-71
2024/04/10 05:12:44;;;;;;;22.13;4.63;;;;;;;;;;5410414;26;20230;-70
2024/04/10 05:15:11;;;;;;;15.10;4.43;;;;;;;;;;5423935;26;20281;-70
2024/04/10 05:17:38;;;;;;;18.13;4.55;;;;;;;;;;5421924;26;20290;-70
2024/04/10 05:20:04;;;;;;;17.67;4.60;;;;;;;;;;5421487;26;20264;-70
2024/04/10 05:22:30;;;;;;;16.95;5.00;;;;;;;;;;5405039;26;20671;-70
2024/04/10 05:24:56;;;;;;;13.60;4.68;;;;;;;;;;5392953;26;20235;-70
2024/04/10 05:27:26;;;;;;;25.73;5.45;;;;;;;;;;5393763;26;20283;-70
2024/04/10 05:30:06;;;;;;;21.13;4.65;;;;;;;;;;5414716;26;20265;-70
2024/04/10 05:32:35;;;;;;;16.33;4.32;;;;;;;;;;5396939;26;20729;-70
2024/04/10 05:35:00;;;;;;;15.82;4.70;;;;;;;;;;5406155;26;20286;-69
2024/04/10 05:37:26;;;;;;;20.25;4.80;;;;;;;;;;5403192;26;20231;-70
2024/04/10 05:40:18;;;;;;;17.08;4.50;;;;;;;;;;5402107;26;20255;-70
2024/04/10 05:42:44;;;;;;;15.25;4.30;;;;;;;;;;5396671;26;20288;-70
2024/04/10 05:45:12;;;;;;;19.40;4.65;;;;;;;;;;5407963;26;20244;-71
2024/04/10 05:47:39;;;;;;;17.55;4.50;;;;;;;;;;5394420;26;20272;-70
2024/04/10 05:50:07;;;;;;;19.88;5.07;;;;;;;;;;5392066;26;20244;-70
2024/04/10 05:52:36;;;;;;;20.70;5.68;;;;;;;;;;5401962;26;20822;-70
2024/04/10 05:55:03;;;;;;;23.02;4.88;;;;;;;;;;5406258;26;20345;-70
2024/04/10 05:57:29;;;;;;;22.75;5.03;;;;;;;;;;5403764;26;20606;-70
2024/04/10 05:59:54;;;;;;;14.40;4.35;;;;;;;;;;5402256;26;20252;-70
2024/04/10 06:02:22;;;;;;;27.10;6.28;;;;;;;;;;5405550;26;20400;-70
2024/04/10 06:04:54;;;;;;;16.92;4.45;;;;;;;;;;5408603;26;20306;-70
2024/04/10 06:07:19;;;;;;;16.95;4.80;;;;;;;;;;5386610;26;20577;-70
2024/04/10 06:09:45;;;;;;;13.15;4.72;;;;;;;;;;5403768;26;20392;-71
2024/04/10 06:12:10;;;;;;;14.38;5.13;;;;;;;;;;5405812;26;20234;-71
2024/04/10 06:14:36;;;;;;;17.95;5.20;;;;;;;;;;5402871;26;20273;-71
2024/04/10 06:17:01;;;;;;;19.48;4.80;;;;;;;;;;5403298;26;20645;-71
2024/04/10 06:19:27;;;;;;;25.00;5.15;;;;;;;;;;5399497;26;20246;-71
2024/04/10 06:21:52;;;;;;;16.55;3.97;;;;;;;;;;5404350;26;20239;-71
2024/04/10 06:24:21;;;;;;;16.27;4.18;;;;;;;;;;5401292;26;20239;-72
2024/04/10 06:26:46;;;;;;;15.85;4.43;;;;;;;;;;5402373;26;20312;-71
2024/04/10 06:29:12;;;;;;;24.40;4.93;;;;;;;;;;5387498;26;20290;-71
2024/04/10 06:31:38;;;;;;;16.25;5.07;;;;;;;;;;5398585;26;20273;-71
2024/04/10 06:34:03;;;;;;;13.75;5.00;;;;;;;;;;5410862;26;20235;-71
2024/04/10 06:36:29;;;;;;;18.67;4.95;;;;;;;;;;5397835;26;20242;-71
2024/04/10 06:38:54;;;;;;;21.02;6.03;;;;;;;;;;5399621;26;20584;-72
2024/04/10 06:41:20;;;;;;;18.33;4.95;;;;;;;;;;5404474;26;20636;-72
2024/04/10 06:43:45;;;;;;;21.42;4.93;;;;;;;;;;5406744;26;21015;-72
2024/04/10 06:46:11;;;;;;;21.85;4.97;;;;;;;;;;5399506;26;20250;-71
2024/04/10 06:48:36;;;;;;;15.90;4.70;;;;;;;;;;5397758;26;20239;-71
2024/04/10 06:51:04;;;;;;;23.30;4.45;;;;;;;;;;5394640;26;20243;-71
2024/04/10 06:53:30;;;;;;;26.48;6.10;;;;;;;;;;5390472;26;20278;-71
2024/04/10 06:55:58;;;;;;;13.77;4.72;;;;;;;;;;5399255;26;20235;-71
2024/04/10 06:58:24;;;;;;;24.25;5.63;;;;;;;;;;5407937;26;20230;-70
2024/04/10 07:01:04;;;;;;;18.63;4.70;;;;;;;;;;5398381;26;20239;-70
2024/04/10 07:03:37;;;;;;;21.30;5.68;;;;;;;;;;5401158;26;20255;-70
2024/04/10 07:06:10;;;;;;;20.60;5.03;;;;;;;;;;5396663;26;20322;-70
2024/04/10 07:08:49;;;;;;;20.80;4.90;;;;;;;;;;5405988;26;20351;-70
2024/04/10 07:11:16;;;;;;;15.90;4.85;;;;;;;;;;5398340;26;20333;-70
2024/04/10 07:13:43;;;;;;;25.85;5.30;;;;;;;;;;5394233;26;20832;-71
2024/04/10 07:16:09;;;;;;;24.80;4.90;;;;;;;;;;5402540;26;20584;-70
2024/04/10 07:18:34;;;;;;;15.38;4.75;;;;;;;;;;5407505;26;20259;-70
2024/04/10 07:21:11;;;;;;;20.70;5.88;;;;;;;;;;5399466;26;20243;-70
2024/04/10 07:23:38;;;;;;;16.73;5.68;;;;;;;;;;5393597;26;20246;-70
2024/04/10 07:26:12;;;;;;;22.48;6.05;;;;;;;;;;5391438;26;20236;-70
2024/04/10 07:28:41;;;;;;;25.40;5.25;;;;;;;;;;5389144;26;20262;-70
2024/04/10 07:31:08;;;;;;;20.98;4.63;;;;;;;;;;5397420;26;20330;-71
2024/04/10 07:33:34;;;;;;;18.05;4.47;;;;;;;;;;5396581;26;20667;-70
2024/04/10 07:36:26;;;;;;;18.55;5.53;;;;;;;;;;5402427;26;20272;-69
2024/04/10 07:38:56;;;;;;;14.45;4.43;;;;;;;;;;5399027;26;20327;-70
2024/04/10 07:41:22;;;;;;;28.35;5.03;;;;;;;;;;5403248;26;20254;-69
2024/04/10 07:43:49;;;;;;;20.42;4.45;;;;;;;;;;5409311;26;20328;-70
2024/04/10 07:46:19;;;;;;;19.77;5.43;;;;;;;;;;5409418;26;20269;-70
2024/04/10 07:48:51;;;;;;;17.83;4.18;;;;;;;;;;5389798;26;20287;-70
2024/04/10 07:51:16;;;;;;;19.80;5.28;;;;;;;;;;5408021;26;20277;-70
2024/04/10 07:53:42;;;;;;;19.63;4.53;;;;;;;;;;5403471;26;20242;-71
2024/04/10 07:56:09;;;;;;;26.52;5.53;;;;;;;;;;5395026;26;20594;-70
2024/04/10 07:58:36;;;;;;;28.98;5.13;;;;;;;;;;5400101;26;20285;-70
2024/04/10 08:01:02;;;;;;;19.15;4.97;;;;;;;;;;5394555;26;20711;-71
2024/04/10 08:03:29;;;;;;;18.80;4.55;;;;;;;;;;5401165;26;20243;-71
2024/04/10 08:05:59;;;;;;;17.20;4.50;;;;;;;;;;5380842;26;20248;-70
2024/04/10 08:08:25;;;;;;;21.85;5.07;;;;;;;;;;5375827;26;20739;-70
2024/04/10 08:10:59;;;;;;;18.98;4.22;;;;;;;;;;5399625;26;20250;-70
2024/04/10 08:13:25;;;;;;;15.38;4.65;;;;;;;;;;5395486;26;20714;-71
2024/04/10 08:16:00;;;;;;;19.67;4.53;;;;;;;;;;5403469;26;20289;-70
2024/04/10 08:18:30;;;;;;;20.60;4.50;;;;;;;;;;5388333;26;20764;-69
2024/04/10 08:21:03;;;;;;;16.33;4.22;;;;;;;;;;5407005;26;20342;-70
2024/04/10 08:23:30;;;;;;;17.42;4.60;;;;;;;;;;5399892;26;20259;-70
2024/04/10 08:25:56;;;;;;;15.57;4.07;;;;;;;;;;5404035;26;20787;-70
2024/04/10 08:28:24;;;;;;;17.30;4.53;;;;;;;;;;5376071;26;20251;-70
2024/04/10 08:30:50;;;;;;;14.02;3.83;;;;;;;;;;5394735;26;20240;-71
2024/04/10 08:33:16;;;;;;;12.68;3.90;;;;;;;;;;5403921;26;20745;-69
2024/04/10 08:35:42;;;;;;;15.82;3.72;;;;;;;;;;5391667;26;20266;-70
2024/04/10 08:38:08;;;;;;;19.20;4.45;;;;;;;;;;5405946;26;20243;-71
2024/04/10 08:40:37;;;;;;;16.20;4.07;;;;;;;;;;5406034;26;20656;-71
2024/04/10 08:43:06;;;;;;;15.05;3.63;;;;;;;;;;5407527;26;20697;-70
2024/04/10 08:45:32;;;;;;;14.77;3.97;;;;;;;;;;5406806;26;20675;-70
2024/04/10 08:47:58;;;;;;;20.05;4.13;;;;;;;;;;5404949;26;20253;-70
2024/04/10 08:50:25;;;;;;;14.43;3.60;;;;;;;;;;5402700;26;20702;-70
2024/04/10 08:52:53;;;;;;;15.63;4.07;;;;;;;;;;5400650;26;20337;-70
2024/04/10 08:55:19;;;;;;;12.05;3.58;;;;;;;;;;5402368;26;20352;-70
2024/04/10 08:57:45;;;;;;;18.77;4.50;;;;;;;;;;5405271;26;20394;-70
2024/04/10 09:00:10;;;;;;;11.00;4.13;;;;;;;;;;5402151;26;20479;-70
2024/04/10 09:02:37;;;;;;;17.85;3.63;;;;;;;;;;5404459;26;20550;-71
2024/04/10 09:05:03;;;;;;;15.98;3.40;;;;;;;;;;5397612;26;20761;-70
2024/04/10 09:07:28;;;;;;;13.80;3.95;;;;;;;;;;5405524;26;20247;-70
2024/04/10 09:09:54;;;;;;;14.65;3.13;;;;;;;;;;5405007;26;20310;-70
2024/04/10 09:12:23;;;;;;;15.50;3.10;;;;;;;;;;5388876;26;20259;-70
2024/04/10 09:14:49;;;;;;;13.10;3.40;;;;;;;;;;5389492;26;20331;-70
2024/04/10 09:17:17;;;;;;;15.27;3.63;;;;;;;;;;5399809;26;20274;-70
2024/04/10 09:19:42;;;;;;;13.40;3.15;;;;;;;;;;5405724;26;21332;-70
2024/04/10 09:22:11;;;;;;;18.45;3.60;;;;;;;;;;5405365;26;20239;-70
2024/04/10 09:24:36;;;;;;;11.02;3.38;;;;;;;;;;5383772;26;20232;-70
2024/04/10 09:27:09;;;;;;;13.10;3.40;;;;;;;;;;5408171;26;20836;-71
2024/04/10 09:29:35;;;;;;;11.93;2.97;;;;;;;;;;5408078;26;20238;-70
2024/04/10 09:32:05;;;;;;;12.70;3.30;;;;;;;;;;5404920;26;20282;-69
2024/04/10 09:34:31;;;;;;;14.50;3.50;;;;;;;;;;5403258;26;20283;-70
2024/04/10 09:36:57;;;;;;;17.65;3.53;;;;;;;;;;5404505;26;20595;-70
2024/04/10 09:39:22;;;;;;;11.10;2.97;;;;;;;;;;5405234;26;20239;-69
2024/04/10 09:41:51;;;;;;;15.85;3.50;;;;;;;;;;5401599;26;20289;-70
2024/04/10 09:44:22;;;;;;;10.70;3.40;;;;;;;;;;5395941;26;20289;-70
2024/04/10 09:47:00;;;;;;;16.00;3.47;;;;;;;;;;5417253;26;20276;-69
2024/04/10 09:49:31;;;;;;;13.18;3.58;;;;;;;;;;5416701;26;20235;-70
2024/04/10 09:52:00;;;;;;;19.15;4.82;;;;;;;;;;5406604;26;20233;-70
2024/04/10 09:54:27;;;;;;;16.60;3.47;;;;;;;;;;5405406;26;20294;-69
2024/04/10 09:56:55;;;;;;;21.70;4.03;;;;;;;;;;5402296;26;20297;-70
2024/04/10 09:59:20;;;;;;;12.10;3.60;;;;;;;;;;5402179;26;20551;-70
2024/04/10 10:01:46;;;;;;;17.15;3.08;;;;;;;;;;5405411;26;20285;-70
2024/04/10 10:04:11;;;;;;;13.48;3.85;;;;;;;;;;5391452;26;20230;-70
2024/04/10 10:06:37;;;;;;;18.90;4.00;;;;;;;;;;5396267;26;20244;-70
2024/04/10 10:09:02;;;;;;;13.35;3.45;;;;;;;;;;5395999;26;20336;-69
2024/04/10 10:11:28;;;;;;;12.75;3.05;;;;;;;;;;5401335;26;20239;-69
2024/04/10 10:14:14;;;;;;;13.27;2.90;;;;;;;;;;5408297;26;20342;-69
2024/04/10 10:16:40;;;;;;;10.75;2.85;;;;;;;;;;5388695;26;20290;-71
2024/04/10 10:19:05;;;;;;;17.52;3.55;;;;;;;;;;5407815;26;20320;-70
2024/04/10 10:21:32;;;;;;;14.45;3.20;;;;;;;;;;5406081;26;20239;-69
2024/04/10 10:24:06;;;;;;;12.30;2.80;;;;;;;;;;5409127;26;20547;-71
2024/04/10 10:26:32;;;;;;;9.60;2.40;;;;;;;;;;5406757;26;20686;-70
2024/04/10 10:29:06;;;;;;;13.38;2.58;;;;;;;;;;5405093;26;20277;-70
2024/04/10 10:31:32;;;;;;;14.38;2.88;;;;;;;;;;5392541;26;20681;-70
2024/04/10 10:34:10;;;;;;;9.93;2.63;;;;;;;;;;5408490;26;20250;-70
2024/04/10 10:36:36;;;;;;;10.30;2.33;;;;;;;;;;5404393;26;20290;-70
2024/04/10 10:39:10;;;;;;;10.38;2.15;;;;;;;;;;5408142;26;20274;-70
2024/04/10 10:41:36;;;;;;;6.55;1.95;;;;;;;;;;5426410;26;20245;-70
2024/04/10 10:44:01;;;;;;;9.10;2.90;;;;;;;;;;5405080;26;20723;-70
2024/04/10 10:46:33;;;;;;;11.95;2.20;;;;;;;;;;5403871;26;20413;-71
2024/04/10 10:48:59;;;;;;;11.63;2.45;;;;;;;;;;5408194;26;20315;-70
2024/04/10 10:51:24;;;;;;;11.45;2.55;;;;;;;;;;5409517;26;20557;-71
2024/04/10 10:53:51;;;;;;;7.63;2.38;;;;;;;;;;5407894;26;20243;-71
2024/04/10 10:56:23;;;;;;;7.00;2.08;;;;;;;;;;5410188;26;20238;-70
2024/04/10 10:58:49;;;;;;;9.07;2.15;;;;;;;;;;5398503;26;20256;-71
2024/04/10 11:01:14;;;;;;;10.27;2.10;;;;;;;;;;5403704;26;20343;-71
2024/04/10 11:03:40;;;;;;;7.97;2.38;;;;;;;;;;5397296;26;20239;-71
2024/04/10 11:06:09;;;;;;;11.27;2.30;;;;;;;;;;5407610;26;20344;-70
2024/04/10 11:08:35;;;;;;;10.95;2.47;;;;;;;;;;5406576;26;20349;-70
2024/04/10 11:11:00;;;;;;;9.73;2.05;;;;;;;;;;5393351;26;20280;-70
2024/04/10 11:13:26;;;;;;;9.20;2.85;;;;;;;;;;5408398;26;20246;-69
2024/04/10 11:15:54;;;;;;;6.85;2.50;;;;;;;;;;5403020;26;20289;-69
2024/04/10 11:18:20;;;;;;;10.63;2.30;;;;;;;;;;5395153;26;20734;-70
2024/04/10 11:20:47;;;;;;;9.90;2.25;;;;;;;;;;5406480;26;20242;-70
2024/04/10 11:23:12;;;;;;;13.43;2.17;;;;;;;;;;5393742;26;20235;-70
2024/04/10 11:25:38;;;;;;;15.45;2.95;;;;;;;;;;5407022;26;20750;-70
2024/04/10 11:28:03;;;;;;;8.75;2.20;;;;;;;;;;5406368;26;20246;-70
2024/04/10 11:30:30;;;;;;;10.30;2.47;;;;;;;;;;5400615;26;20252;-69
2024/04/10 11:32:57;;;;;;;10.88;2.70;;;;;;;;;;5395384;26;20264;-71
2024/04/10 11:35:23;;;;;;;11.88;3.10;;;;;;;;;;5401401;26;20263;-70
2024/04/10 11:37:50;;;;;;;11.23;2.78;;;;;;;;;;5399158;26;20247;-70
2024/04/10 11:40:16;;;;;;;12.15;2.78;;;;;;;;;;5385886;26;20697;-70
2024/04/10 11:42:41;;;;;;;11.73;2.75;;;;;;;;;;5406458;26;20281;-70
2024/04/10 11:45:07;;;;;;;10.18;1.63;;;;;;;;;;5407506;26;20250;-70
2024/04/10 11:47:36;;;;;;;9.88;2.33;;;;;;;;;;5406287;26;20332;-70
2024/04/10 11:50:04;;;;;;;7.15;2.13;;;;;;;;;;5390730;26;20741;-72
2024/04/10 11:52:30;;;;;;;6.63;1.88;;;;;;;;;;5398590;26;20239;-71
2024/04/10 11:54:57;;;;;;;9.73;1.77;;;;;;;;;;5404381;26;20616;-71
2024/04/10 11:57:23;;;;;;;8.02;2.10;;;;;;;;;;5400410;26;20261;-71
2024/04/10 11:59:49;;;;;;;10.57;2.63;;;;;;;;;;5402959;26;20387;-71
2024/04/10 12:02:14;;;;;;;6.35;1.95;;;;;;;;;;5402770;26;20718;-71
2024/04/10 12:04:40;;;;;;;6.57;1.83;;;;;;;;;;5383082;26;20274;-70
2024/04/10 12:07:05;;;;;;;8.02;2.05;;;;;;;;;;5403521;26;20298;-70
2024/04/10 12:09:31;;;;;;;8.43;2.22;;;;;;;;;;5384343;26;20344;-71
2024/04/10 12:11:56;;;;;;;10.80;2.20;;;;;;;;;;5394373;26;20327;-71
2024/04/10 12:14:21;;;;;;;8.00;1.85;;;;;;;;;;5390257;26;20343;-71
2024/04/10 12:16:47;;;;;;;8.95;2.28;;;;;;;;;;5378670;26;20263;-71
2024/04/10 12:19:12;;;;;;;6.07;1.73;;;;;;;;;;5399304;26;20391;-70
2024/04/10 12:21:38;;;;;;;7.32;1.90;;;;;;;;;;5378410;26;20240;-71
2024/04/10 12:24:04;;;;;;;7.93;1.85;;;;;;;;;;5374978;26;20275;-69
2024/04/10 12:26:33;;;;;;;9.07;1.80;;;;;;;;;;5384666;26;20298;-69
2024/04/10 12:29:00;;;;;;;6.93;1.92;;;;;;;;;;5398048;26;20722;-70
2024/04/10 12:31:26;;;;;;;7.65;1.92;;;;;;;;;;5403518;26;20753;-70
2024/04/10 12:33:52;;;;;;;5.70;1.77;;;;;;;;;;5397129;26;20278;-69
2024/04/10 12:39:02;;;;;;;5.13;1.52;;;;;;;;;;5382841;26;20262;-71
2024/04/10 12:41:27;;;;;;;9.30;1.63;;;;;;;;;;5391352;26;20254;-72
2024/04/10 12:43:55;;;;;;;4.75;1.40;;;;;;;;;;5401805;26;21530;-70
2024/04/10 12:47:56;;;;;;;6.28;1.70;;;;;;;;;;5533197;25;20982;-70
2024/04/10 12:50:21;;;;;;;5.03;1.90;;;;;;;;;;5492225;25;20346;-71
2024/04/10 12:52:47;;;;;;;4.47;1.42;;;;;;;;;;5490284;25;20697;-70
2024/04/10 12:55:12;;;;;;;6.72;1.60;;;;;;;;;;5486701;25;20250;-69
2024/04/10 12:57:38;;;;;;;11.07;1.70;;;;;;;;;;5498350;25;20236;-70
2024/04/10 13:00:05;;;;;;;9.43;1.45;;;;;;;;;;5497996;25;20236;-70
2024/04/10 13:02:30;;;;;;;5.13;1.60;;;;;;;;;;5504436;25;20715;-71
2024/04/10 13:04:56;;;;;;;8.25;1.63;;;;;;;;;;5486200;25;20241;-70
2024/04/10 13:07:21;;;;;;;8.88;1.50;;;;;;;;;;5462380;26;20245;-71
2024/04/10 13:09:49;;;;;;;7.75;1.98;;;;;;;;;;5493860;25;20236;-71
2024/04/10 13:12:15;;;;;;;4.47;1.77;;;;;;;;;;5498005;25;20291;-71
2024/04/10 13:14:41;;;;;;;6.78;1.95;;;;;;;;;;5498426;25;20241;-72
2024/04/10 13:17:06;;;;;;;6.93;1.63;;;;;;;;;;5490580;25;20366;-71
2024/04/10 13:19:34;;;;;;;4.72;1.40;;;;;;;;;;5500822;25;20858;-71
2024/04/10 13:22:03;;;;;;;7.63;1.55;;;;;;;;;;5489440;26;20255;-69
2024/04/10 13:24:29;;;;;;;5.55;1.30;;;;;;;;;;5496530;25;20236;-70
2024/04/10 13:26:55;;;;;;;7.45;1.92;;;;;;;;;;5482486;25;20280;-71
2024/04/10 13:29:21;;;;;;;8.30;2.00;;;;;;;;;;5485589;25;20779;-70
2024/04/10 13:31:47;;;;;;;6.07;1.85;;;;;;;;;;5477584;25;20232;-70
2024/04/10 13:34:13;;;;;;;6.70;1.55;;;;;;;;;;5492648;25;20716;-70
2024/04/10 13:36:38;;;;;;;4.78;1.77;;;;;;;;;;5485510;25;20287;-70
2024/04/10 13:39:04;;;;;;;6.88;1.70;;;;;;;;;;5461987;25;20268;-71
2024/04/10 13:41:31;;;;;;;5.47;1.60;;;;;;;;;;5470961;25;20253;-71
2024/04/10 13:43:58;;;;;;;8.15;1.90;;;;;;;;;;5472995;25;20314;-69
2024/04/10 13:46:24;;;;;;;6.53;1.55;;;;;;;;;;5464716;25;20904;-71
2024/04/10 13:48:51;;;;;;;7.93;2.10;;;;;;;;;;5483264;25;20237;-70
2024/04/10 13:51:18;;;;;;;4.40;1.42;;;;;;;;;;5483567;25;20291;-70
2024/04/10 13:53:44;;;;;;;7.70;1.50;;;;;;;;;;5481354;25;20237;-71
2024/04/10 13:56:11;;;;;;;5.15;1.55;;;;;;;;;;5473636;26;20305;-71
2024/04/10 13:58:38;;;;;;;4.70;1.48;;;;;;;;;;5468788;26;20241;-71
2024/04/10 14:01:18;;;;;;;5.05;1.50;;;;;;;;;;5457340;26;20253;-71
2024/04/10 14:03:45;;;;;;;6.28;1.48;;;;;;;;;;5474018;26;20236;-71
2024/04/10 14:06:10;;;;;;;7.45;1.38;;;;;;;;;;5459414;26;20272;-71
2024/04/10 14:08:36;;;;;;;6.95;1.50;;;;;;;;;;5462675;26;20307;-71
2024/04/10 14:11:05;;;;;;;6.47;1.42;;;;;;;;;;5460906;26;20273;-71
2024/04/10 14:13:35;;;;;;;5.80;1.42;;;;;;;;;;5453765;26;20406;-71
2024/04/10 14:16:01;;;;;;;6.25;1.58;;;;;;;;;;5455231;26;20328;-72
2024/04/10 14:18:28;;;;;;;6.10;1.33;;;;;;;;;;5474125;26;20636;-71
2024/04/10 14:20:58;;;;;;;5.03;1.13;;;;;;;;;;5466557;26;20230;-71
2024/04/10 14:23:24;;;;;;;4.95;1.10;;;;;;;;;;5456094;26;20246;-70
2024/04/10 14:25:52;;;;;;;5.30;1.23;;;;;;;;;;5474164;26;21006;-71
2024/04/10 14:28:18;;;;;;;7.22;1.38;;;;;;;;;;5465441;26;20336;-71
2024/04/10 14:30:59;;;;;;;4.90;1.20;;;;;;;;;;5475580;26;20598;-71
2024/04/10 14:33:27;;;;;;;5.45;1.50;;;;;;;;;;5473988;26;20283;-70
2024/04/10 14:35:53;;;;;;;3.72;1.35;;;;;;;;;;5450023;26;20272;-70